Time;durP1;ratioP1;P1;durP2;ratioP2;P2;SDS_P1;SDS_P2;PMS_P1;PMS_P2;Temp;Humidity;BMP_temperature;BMP_pressure;BME280_temperature;BME280_humidity;BME280_pressure;Samples;Min_cycle;Max_cycle;Signal;HPM_P1;HPM_P2
2022/02/10 00:05:33;;;;;;;11.20;9.73;;;9.80;1.00;;;;;;5138072;27;20440;-86
2022/02/10 00:14:07;;;;;;;10.33;9.33;;;9.70;1.00;;;;;;5144767;27;20448;-85
2022/02/10 00:19:42;;;;;;;12.68;9.73;;;9.70;1.00;;;;;;5153578;27;20529;-85
2022/02/10 00:22:15;;;;;;;11.53;9.50;;;9.70;1.00;;;;;;5143128;27;22382;-86
2022/02/10 00:35:55;;;;;;;11.30;10.10;;;9.60;1.00;;;;;;5130310;27;20459;-86
2022/02/10 00:38:27;;;;;;;11.20;9.90;;;9.60;1.00;;;;;;5138095;27;20445;-87
2022/02/10 00:40:54;;;;;;;11.17;9.10;;;9.70;1.00;;;;;;5133067;27;20238;-87
2022/02/10 00:43:21;;;;;;;14.57;11.10;;;9.70;1.00;;;;;;5138120;27;20419;-88
2022/02/10 00:45:48;;;;;;;11.67;10.23;;;9.80;1.00;;;;;;5136213;27;21330;-87
2022/02/10 00:48:17;;;;;;;10.48;9.38;;;9.80;1.00;;;;;;5131960;27;20457;-88
2022/02/10 00:50:46;;;;;;;11.60;10.40;;;9.80;1.00;;;;;;5133610;27;20595;-86
2022/02/10 00:53:17;;;;;;;12.87;11.57;;;9.80;1.00;;;;;;5129929;27;20413;-86
2022/02/10 00:55:46;;;;;;;11.93;10.47;;;9.80;1.00;;;;;;5137071;27;20449;-86
2022/02/10 00:58:20;;;;;;;11.77;10.57;;;9.80;1.00;;;;;;5138480;27;20420;-87
2022/02/10 01:12:24;;;;;;;12.60;10.43;;;9.70;1.00;;;;;;5131783;27;20448;-87
2022/02/10 01:31:27;;;;;;;10.50;9.17;;;9.70;1.00;;;;;;5133723;27;20862;-87
2022/02/10 01:33:54;;;;;;;12.70;10.47;;;9.70;1.00;;;;;;5133745;27;20465;-87
2022/02/10 01:36:22;;;;;;;11.53;9.93;;;9.70;1.00;;;;;;5136541;27;20446;-87
2022/02/10 01:38:49;;;;;;;12.20;10.20;;;9.70;1.00;;;;;;5130919;27;21291;-87
2022/02/10 01:41:57;;;;;;;13.65;11.30;;;9.60;1.00;;;;;;5131639;27;20462;-86
2022/02/10 01:58:38;;;;;;;11.07;9.90;;;9.50;1.00;;;;;;5134651;27;20227;-87
2022/02/10 02:03:52;;;;;;;11.55;10.20;;;9.50;1.00;;;;;;5143030;27;20237;-88
2022/02/10 02:06:23;;;;;;;14.07;11.13;;;9.50;1.00;;;;;;5134143;27;20244;-86
2022/02/10 02:08:52;;;;;;;12.90;10.53;;;9.50;1.00;;;;;;5129874;27;20450;-86
2022/02/10 02:11:24;;;;;;;13.77;10.80;;;9.50;1.00;;;;;;5129106;27;20459;-86
2022/02/10 02:13:50;;;;;;;10.20;9.17;;;9.60;1.00;;;;;;5142715;27;20459;-86
2022/02/10 02:16:17;;;;;;;12.70;9.30;;;9.60;1.00;;;;;;5135371;27;20411;-87
2022/02/10 02:18:44;;;;;;;10.30;9.20;;;9.60;1.00;;;;;;5131180;27;20438;-86
2022/02/10 02:21:17;;;;;;;11.75;9.20;;;9.60;1.00;;;;;;5129380;27;20429;-88
2022/02/10 02:23:45;;;;;;;12.00;10.30;;;9.60;1.00;;;;;;5126951;27;20227;-87
2022/02/10 02:26:17;;;;;;;12.50;11.20;;;9.60;1.00;;;;;;5129811;27;20432;-87
2022/02/10 02:28:48;;;;;;;12.47;9.90;;;9.60;1.00;;;;;;5127956;27;20453;-87
2022/02/10 02:31:20;;;;;;;11.07;9.97;;;9.60;1.00;;;;;;5132901;27;21382;-87
2022/02/10 02:39:44;;;;;;;10.73;8.90;;;9.60;1.00;;;;;;5136753;27;20238;-86
2022/02/10 03:04:37;;;;;;;8.90;7.53;;;9.60;1.00;;;;;;5131021;27;20508;-87
2022/02/10 03:07:05;;;;;;;10.10;7.60;;;9.60;1.00;;;;;;5147917;27;20884;-87
2022/02/10 03:09:39;;;;;;;8.57;7.67;;;9.60;1.00;;;;;;5135305;27;22461;-87
2022/02/10 03:12:09;;;;;;;8.55;7.50;;;9.60;1.00;;;;;;5133915;27;20444;-87
2022/02/10 03:14:43;;;;;;;8.87;7.27;;;9.50;1.00;;;;;;5131673;27;20272;-87
2022/02/10 03:17:41;;;;;;;8.40;7.60;;;9.50;1.00;;;;;;5134514;27;20455;-88
2022/02/10 03:20:21;;;;;;;9.60;8.10;;;9.50;1.00;;;;;;5132457;27;20704;-87
2022/02/10 04:02:07;;;;;;;8.02;7.15;;;9.60;1.00;;;;;;5147840;27;20448;-87
2022/02/10 04:07:38;;;;;;;12.67;7.73;;;9.60;1.00;;;;;;5133149;27;20609;-87
2022/02/10 04:10:31;;;;;;;11.60;7.67;;;9.60;1.00;;;;;;5138739;27;21665;-87
2022/02/10 04:13:09;;;;;;;11.40;9.80;;;9.70;1.00;;;;;;5136243;27;20627;-87
2022/02/10 04:15:41;;;;;;;12.90;11.10;;;9.70;1.00;;;;;;5133996;27;21433;-86
2022/02/10 04:18:44;;;;;;;13.50;10.47;;;9.70;1.00;;;;;;5134457;27;20448;-87
2022/02/10 04:21:21;;;;;;;10.07;8.77;;;9.70;1.00;;;;;;5133924;27;20446;-87
2022/02/10 04:24:06;;;;;;;9.85;8.80;;;9.60;1.00;;;;;;5150164;27;20399;-86
2022/02/10 04:26:40;;;;;;;11.10;8.10;;;9.50;1.00;;;;;;5147182;27;20757;-87
2022/02/10 04:29:33;;;;;;;12.07;10.20;;;9.50;1.00;;;;;;5137514;27;21583;-87
2022/02/10 04:32:19;;;;;;;10.60;9.27;;;9.50;1.00;;;;;;5133523;27;20461;-87
2022/02/10 04:38:00;;;;;;;8.13;6.95;;;9.50;1.00;;;;;;5133784;27;20442;-87
2022/02/10 04:43:44;;;;;;;11.53;7.43;;;9.40;1.00;;;;;;5150052;27;20437;-88
2022/02/10 04:54:58;;;;;;;8.07;6.50;;;9.20;1.00;;;;;;5139597;27;20448;-86
2022/02/10 05:00:32;;;;;;;9.23;7.87;;;9.30;1.00;;;;;;5124301;27;20442;-87
2022/02/10 05:08:47;;;;;;;7.70;7.00;;;9.30;1.00;;;;;;5135593;27;20473;-86
2022/02/10 05:16:58;;;;;;;8.90;7.40;;;9.20;1.00;;;;;;5140525;27;21033;-86
2022/02/10 05:19:44;;;;;;;11.43;6.53;;;9.10;1.00;;;;;;5136974;27;20424;-87
2022/02/10 05:33:24;;;;;;;9.77;8.33;;;9.30;1.00;;;;;;5140429;27;20429;-82
2022/02/10 05:35:57;;;;;;;8.85;7.68;;;9.30;1.00;;;;;;5137410;27;20449;-82
2022/02/10 05:38:28;;;;;;;9.87;8.13;;;9.20;1.00;;;;;;5143304;27;20268;-85
2022/02/10 05:43:48;;;;;;;8.40;7.47;;;9.20;1.00;;;;;;5147459;27;21237;-85
2022/02/10 05:46:24;;;;;;;7.63;6.50;;;9.30;1.00;;;;;;5143179;27;20539;-83
2022/02/10 05:52:07;;;;;;;8.10;7.20;;;9.30;1.00;;;;;;5141547;27;20479;-81
2022/02/10 05:54:53;;;;;;;9.57;7.28;;;9.30;1.00;;;;;;5143188;27;21339;-82
2022/02/10 05:57:39;;;;;;;8.70;6.30;;;9.40;1.00;;;;;;5141575;27;20228;-81
2022/02/10 06:39:45;;;;;;;7.60;6.68;;;9.10;1.00;;;;;;5147206;27;20422;-83
2022/02/10 06:47:39;;;;;;;9.50;7.90;;;9.00;1.00;;;;;;5146514;27;20440;-83
2022/02/10 06:50:25;;;;;;;9.60;7.15;;;8.90;1.00;;;;;;5144512;27;20420;-84
2022/02/10 06:53:02;;;;;;;8.70;7.67;;;8.90;1.00;;;;;;5146291;27;20297;-83
2022/02/10 06:56:15;;;;;;;10.35;8.13;;;8.90;1.00;;;;;;5146573;27;20474;-83
2022/02/10 07:04:37;;;;;;;9.00;7.13;;;8.90;1.00;;;;;;5097436;28;20327;-83
2022/02/10 07:10:11;;;;;;;8.50;6.90;;;8.80;1.00;;;;;;5144255;27;20438;-85
2022/02/10 07:51:35;;;;;;;8.97;8.07;;;9.10;1.00;;;;;;5128985;27;20280;-86
2022/02/10 07:56:58;;;;;;;9.77;8.10;;;9.00;1.00;;;;;;5151240;27;20485;-86
2022/02/10 08:00:03;;;;;;;11.83;7.53;;;9.10;1.00;;;;;;5147750;27;20221;-86
2022/02/10 08:49:57;;;;;;;13.37;7.67;;;10.00;1.00;;;;;;5149640;27;21005;-86
2022/02/10 08:55:25;;;;;;;6.77;6.07;;;10.20;1.00;;;;;;5157341;27;20617;-87
2022/02/10 09:03:39;;;;;;;10.40;7.73;;;10.30;1.00;;;;;;5165691;27;20557;-86
2022/02/10 09:06:15;;;;;;;9.90;7.97;;;10.30;1.00;;;;;;5178333;27;20470;-88
2022/02/10 09:12:02;;;;;;;11.43;8.00;;;10.40;1.00;;;;;;5158538;27;21058;-86
2022/02/10 09:15:23;;;;;;;7.93;7.13;;;10.60;1.00;;;;;;5154641;27;21001;-86
2022/02/10 09:59:38;;;;;;;10.30;8.60;;;11.20;1.00;;;;;;5132348;27;21232;-85
2022/02/10 10:02:10;;;;;;;14.63;10.63;;;11.30;1.00;;;;;;5148157;27;20456;-86
2022/02/10 10:04:44;;;;;;;11.80;8.90;;;11.40;1.00;;;;;;5148562;27;21330;-87
2022/02/10 10:07:25;;;;;;;9.83;8.80;;;11.40;1.00;;;;;;5171834;27;20458;-86
2022/02/10 10:15:48;;;;;;;10.40;9.17;;;11.40;1.00;;;;;;5129974;27;20713;-82
2022/02/10 10:18:44;;;;;;;11.47;10.30;;;11.30;1.00;;;;;;5154389;27;20439;-83
2022/02/10 10:21:28;;;;;;;12.50;10.23;;;11.30;1.00;;;;;;5154278;27;20454;-82
2022/02/10 10:49:48;;;;;;;12.10;10.10;;;11.70;1.00;;;;;;5146686;27;21032;-84
2022/02/10 10:52:26;;;;;;;9.43;8.37;;;11.70;1.00;;;;;;5151428;27;20670;-85
2022/02/10 10:54:57;;;;;;;9.20;7.70;;;11.70;1.00;;;;;;5157570;27;20411;-85
2022/02/10 10:57:28;;;;;;;10.17;9.03;;;11.50;1.00;;;;;;5179168;27;20436;-82
2022/02/10 11:00:24;;;;;;;11.13;9.10;;;11.40;1.00;;;;;;5148022;27;20492;-82
2022/02/10 11:38:22;;;;;;;10.13;7.80;;;13.00;1.00;;;;;;5101158;27;20436;-83
2022/02/10 11:41:27;;;;;;;11.97;8.30;;;13.10;1.00;;;;;;5117806;27;20429;-84
2022/02/10 11:44:46;;;;;;;9.37;7.63;;;13.00;1.00;;;;;;5095588;27;20465;-83
2022/02/10 12:44:14;;;;;;;11.70;9.30;;;12.00;1.00;;;;;;5109955;27;20458;-83
2022/02/10 14:09:14;;;;;;;3.10;1.90;;;9.60;1.00;;;;;;5041686;28;20459;-85
2022/02/10 14:14:40;;;;;;;1.73;1.15;;;8.70;1.00;;;;;;5033560;28;20465;-86
2022/02/10 14:17:15;;;;;;;2.60;1.20;;;8.30;1.00;;;;;;5063931;28;20266;-85
2022/02/10 14:20:11;;;;;;;2.67;1.38;;;8.00;1.00;;;;;;5066900;28;21200;-87
2022/02/10 14:23:05;;;;;;;2.00;1.40;;;7.80;1.00;;;;;;5050795;28;20241;-87
2022/02/10 14:25:50;;;;;;;;;;;;;;;;;;;;;
2022/02/10 14:28:34;;;;;;;4.82;1.75;;;7.60;1.00;;;;;;5038814;28;20287;-88
2022/02/10 14:31:23;;;;;;;2.35;1.20;;;7.50;1.00;;;;;;5043406;28;20259;-85
2022/02/10 14:34:15;;;;;;;6.65;5.30;;;7.50;1.00;;;;;;5054151;22;20241;-86
2022/02/10 14:37:48;;;;;;;1.90;1.40;;;7.50;1.00;;;;;;5052596;28;20311;-87
2022/02/10 14:41:24;;;;;;;2.03;1.50;;;7.60;1.00;;;;;;5048773;28;20289;-85
2022/02/10 15:33:48;;;;;;;4.28;3.03;;;7.00;1.00;;;;;;5026368;28;22479;-86
2022/02/10 15:50:46;;;;;;;7.30;6.05;;;7.00;1.00;;;;;;5114534;27;22068;-85
2022/02/10 15:56:25;;;;;;;4.90;2.42;;;6.90;1.00;;;;;;5142691;27;20222;-83
2022/02/10 16:19:18;;;;;;;4.88;3.70;;;6.90;1.00;;;;;;5061676;28;20236;-87
2022/02/10 16:21:58;;;;;;;5.40;4.60;;;6.80;1.00;;;;;;5112314;27;20210;-85
2022/02/10 16:24:36;;;;;;;5.28;4.25;;;6.80;1.00;;;;;;5136429;27;20242;-86
2022/02/10 16:27:15;;;;;;;5.07;3.30;;;6.70;1.00;;;;;;5119240;27;20254;-85
2022/02/10 16:29:46;;;;;;;3.55;2.75;;;6.70;1.00;;;;;;5129405;27;20544;-86
2022/02/10 16:32:13;;;;;;;3.42;2.90;;;6.60;1.00;;;;;;5134825;27;20224;-87
2022/02/10 16:34:43;;;;;;;2.83;2.10;;;6.60;1.00;;;;;;5136346;27;20237;-87
2022/02/10 16:37:10;;;;;;;3.10;2.63;;;6.60;1.00;;;;;;5135806;27;20228;-85
2022/02/10 16:39:40;;;;;;;4.72;3.83;;;6.60;1.00;;;;;;5133382;27;20240;-86
2022/02/10 16:42:10;;;;;;;5.15;3.55;;;6.60;1.00;;;;;;5126234;27;20220;-85
2022/02/10 16:44:38;;;;;;;7.50;5.10;;;6.70;1.00;;;;;;5125422;27;20249;-85
2022/02/10 16:47:07;;;;;;;5.43;4.05;;;6.70;1.00;;;;;;5134061;27;20325;-86
2022/02/10 16:49:34;;;;;;;5.30;4.13;;;6.70;1.00;;;;;;5140641;27;20246;-85
2022/02/10 16:52:01;;;;;;;6.55;4.40;;;6.70;1.00;;;;;;5137235;27;20210;-85
2022/02/10 16:54:32;;;;;;;5.57;4.00;;;6.80;1.00;;;;;;5138023;27;20214;-86
2022/02/10 16:57:06;;;;;;;4.97;3.42;;;6.80;1.00;;;;;;5140289;27;20266;-86
2022/02/10 16:59:43;;;;;;;4.63;3.38;;;6.70;1.00;;;;;;5150621;27;20233;-85
2022/02/10 17:05:17;;;;;;;3.85;3.20;;;6.70;1.00;;;;;;5104878;27;20306;-86
2022/02/10 17:17:01;;;;;;;5.47;3.40;;;6.50;1.00;;;;;;5143314;27;20219;-86
2022/02/10 17:19:15;;;;;;;3.88;2.35;;;6.50;1.00;;;;;;5123509;27;20989;-89
2022/02/10 17:27:24;;;;;;;4.50;3.72;;;6.60;1.00;;;;;;5149205;27;20793;-87
2022/02/10 17:32:58;;;;;;;7.32;5.07;;;6.60;1.00;;;;;;5134537;27;21090;-89
2022/02/10 17:35:45;;;;;;;5.32;3.90;;;6.60;1.00;;;;;;5143415;27;20215;-88
2022/02/10 17:46:39;;;;;;;5.05;4.10;;;6.60;1.00;;;;;;5144945;27;20223;-88
2022/02/10 17:51:59;;;;;;;6.00;5.30;;;6.70;1.00;;;;;;5135389;27;20257;-87
2022/02/10 17:54:27;;;;;;;4.43;3.45;;;6.70;1.00;;;;;;5129804;27;20289;-86
2022/02/10 17:56:54;;;;;;;4.75;3.30;;;6.70;1.00;;;;;;5133154;27;20272;-87
2022/02/10 17:59:22;;;;;;;5.13;3.80;;;6.80;1.00;;;;;;5127167;27;20216;-86
2022/02/10 18:01:51;;;;;;;3.88;3.13;;;6.80;1.00;;;;;;5136391;27;20235;-86
2022/02/10 18:04:19;;;;;;;5.10;3.97;;;6.80;1.00;;;;;;5133586;27;20239;-87
2022/02/10 18:06:53;;;;;;;4.70;4.10;;;6.80;1.00;;;;;;5129725;27;20219;-86
2022/02/10 18:13:01;;;;;;;5.85;4.43;;;6.80;1.00;;;;;;5121338;27;20235;-88
2022/02/10 18:15:27;;;;;;;6.72;4.50;;;6.90;1.00;;;;;;5125152;27;20215;-87
2022/02/10 18:18:01;;;;;;;7.07;4.68;;;6.90;1.00;;;;;;5116277;27;20215;-83
2022/02/10 18:20:34;;;;;;;6.15;4.85;;;6.90;1.00;;;;;;5110646;27;20219;-85
2022/02/10 18:23:10;;;;;;;5.75;4.95;;;6.90;1.00;;;;;;5179376;22;20211;31
2022/02/10 18:25:52;;;;;;;8.50;5.53;;;6.90;1.00;;;;;;5057225;28;20277;-86
2022/02/10 18:28:32;;;;;;;7.43;5.35;;;7.00;1.00;;;;;;5050779;28;21036;-85
2022/02/10 19:02:08;;;;;;;4.28;3.30;;;7.10;1.00;;;;;;5032096;28;20210;-83
2022/02/10 19:07:35;;;;;;;7.78;4.00;;;7.00;1.00;;;;;;5051301;28;20213;-82
2022/02/10 19:10:04;;;;;;;5.35;4.13;;;7.00;1.00;;;;;;5035871;28;20235;-82
2022/02/10 19:12:41;;;;;;;5.32;3.95;;;7.10;1.00;;;;;;5038329;28;20253;-82
2022/02/10 19:15:15;;;;;;;5.15;3.40;;;7.00;1.00;;;;;;5021005;28;20221;-83
2022/02/10 19:17:44;;;;;;;4.55;3.83;;;7.00;1.00;;;;;;5042309;28;20228;-83
2022/02/10 19:20:12;;;;;;;5.25;4.20;;;6.90;1.00;;;;;;5037903;28;20233;-86
2022/02/10 19:22:43;;;;;;;6.45;4.18;;;6.90;1.00;;;;;;5057373;28;20220;-84
2022/02/10 19:25:12;;;;;;;4.47;4.05;;;6.90;1.00;;;;;;5035896;28;20248;-81
2022/02/10 19:27:43;;;;;;;4.82;4.25;;;6.80;1.00;;;;;;5009173;28;20419;-82
2022/02/10 19:30:13;;;;;;;18.50;12.48;;;6.80;1.00;;;;;;5021373;28;21612;-84
2022/02/10 19:32:46;;;;;;;6.20;3.78;;;6.70;1.00;;;;;;5006747;28;20225;-85
2022/02/10 19:35:15;;;;;;;4.90;3.97;;;6.80;1.00;;;;;;5029265;28;20221;-83
2022/02/10 19:37:44;;;;;;;4.60;3.75;;;6.80;1.00;;;;;;5034392;28;20228;-84
2022/02/10 19:40:12;;;;;;;4.78;4.10;;;6.70;1.00;;;;;;5025342;28;20437;-84
2022/02/10 19:42:41;;;;;;;5.60;3.47;;;6.70;1.00;;;;;;5025114;28;20230;-84
2022/02/10 19:45:09;;;;;;;5.00;4.30;;;6.70;1.00;;;;;;5025095;28;20229;-84
2022/02/10 19:47:38;;;;;;;7.78;4.30;;;6.70;1.00;;;;;;5025842;28;20316;-84
2022/02/10 19:50:15;;;;;;;5.00;4.05;;;6.70;1.00;;;;;;5014556;28;20237;-84
2022/02/10 19:52:48;;;;;;;7.38;4.50;;;6.70;1.00;;;;;;5020919;28;21003;-84
2022/02/10 19:55:19;;;;;;;5.50;3.90;;;6.60;1.00;;;;;;5039566;28;20776;-86
2022/02/10 19:57:55;;;;;;;5.38;4.25;;;6.60;1.00;;;;;;5039294;28;20228;-86
2022/02/10 20:00:27;;;;;;;8.25;4.80;;;6.60;1.00;;;;;;5020779;28;21313;-86
2022/02/10 20:02:54;;;;;;;6.90;4.07;;;6.70;1.00;;;;;;5036205;28;20213;-85
2022/02/10 20:05:25;;;;;;;5.55;4.60;;;6.60;1.00;;;;;;5030392;28;20399;-86
2022/02/10 20:07:53;;;;;;;5.50;4.85;;;6.70;1.00;;;;;;5039439;28;20228;-85
2022/02/10 20:10:21;;;;;;;4.60;4.20;;;6.60;1.00;;;;;;5041922;28;20233;-86
2022/02/10 20:12:49;;;;;;;5.57;4.90;;;6.60;1.00;;;;;;5018049;28;20236;-83
2022/02/10 20:15:16;;;;;;;6.35;4.50;;;6.60;1.00;;;;;;5029622;28;20232;-82
2022/02/10 20:17:45;;;;;;;7.88;5.90;;;6.70;1.00;;;;;;5049969;28;20220;-83
2022/02/10 20:20:12;;;;;;;5.85;5.10;;;6.70;1.00;;;;;;5054953;28;21099;-84
2022/02/10 20:22:39;;;;;;;5.70;5.00;;;6.70;1.00;;;;;;5027684;28;20311;-83
2022/02/10 20:25:09;;;;;;;6.65;5.47;;;6.70;1.00;;;;;;5046667;28;20364;-84
2022/02/10 20:27:37;;;;;;;7.82;5.70;;;6.70;1.00;;;;;;5050498;28;20230;-85
2022/02/10 20:30:04;;;;;;;7.50;5.20;;;6.70;1.00;;;;;;5019118;28;20540;-83
2022/02/10 20:32:31;;;;;;;10.43;6.82;;;6.70;1.00;;;;;;5043752;28;20249;-84
2022/02/10 20:34:58;;;;;;;7.75;5.90;;;6.70;1.00;;;;;;5026715;28;20296;-83
2022/02/10 20:37:25;;;;;;;8.93;5.70;;;6.70;1.00;;;;;;5047506;28;20244;-83
2022/02/10 20:39:52;;;;;;;8.20;7.35;;;6.70;1.00;;;;;;5049033;28;20229;-84
2022/02/10 20:42:22;;;;;;;9.30;7.53;;;6.70;1.00;;;;;;5051678;28;20463;-83
2022/02/10 20:44:55;;;;;;;8.00;7.20;;;6.70;1.00;;;;;;5057227;28;21081;-83
2022/02/10 20:47:25;;;;;;;12.43;8.10;;;6.70;1.00;;;;;;5052710;28;20236;-85
2022/02/10 20:49:53;;;;;;;10.52;6.50;;;6.60;1.00;;;;;;5055276;28;20285;-84
2022/02/10 20:52:20;;;;;;;9.95;7.20;;;6.60;1.00;;;;;;5056518;28;20252;-85
2022/02/10 20:54:47;;;;;;;11.60;7.93;;;6.70;1.00;;;;;;5057429;28;20268;-83
2022/02/10 20:57:15;;;;;;;12.15;9.15;;;6.70;1.00;;;;;;5048385;28;20304;-84
2022/02/10 20:59:46;;;;;;;11.15;8.02;;;6.60;1.00;;;;;;5058759;28;20228;-84
2022/02/10 21:02:18;;;;;;;10.80;8.10;;;6.70;1.00;;;;;;5070231;28;20226;-88
2022/02/10 21:04:52;;;;;;;11.27;8.20;;;6.70;1.00;;;;;;5060303;28;20226;-84
2022/02/10 21:07:25;;;;;;;11.32;8.40;;;6.70;1.00;;;;;;5069468;28;20277;-85
2022/02/10 21:09:57;;;;;;;11.05;8.30;;;6.60;1.00;;;;;;5063488;28;20233;-84
2022/02/10 21:12:37;;;;;;;11.63;8.60;;;6.60;1.00;;;;;;5058618;28;20229;-86
2022/02/10 21:15:17;;;;;;;12.80;9.57;;;6.60;1.00;;;;;;5062431;28;20213;-88
2022/02/10 21:17:45;;;;;;;13.43;8.57;;;6.60;1.00;;;;;;5049131;28;20217;-85
2022/02/10 21:20:14;;;;;;;12.38;9.38;;;6.60;1.00;;;;;;5047401;28;20260;-85
2022/02/10 21:22:46;;;;;;;13.07;8.50;;;6.70;1.00;;;;;;5059941;28;20237;-85
2022/02/10 21:25:21;;;;;;;11.00;7.60;;;6.70;1.00;;;;;;5048988;28;20228;-84
2022/02/10 21:27:50;;;;;;;13.35;8.25;;;6.70;1.00;;;;;;5051411;28;20256;-82
2022/02/10 21:30:20;;;;;;;12.73;9.07;;;6.70;1.00;;;;;;5066030;28;20228;-87
2022/02/10 21:32:51;;;;;;;12.63;8.82;;;6.70;1.00;;;;;;5069820;28;20240;-83
2022/02/10 21:35:31;;;;;;;12.57;9.25;;;6.70;1.00;;;;;;5060467;28;20234;-82
2022/02/10 21:38:15;;;;;;;11.32;9.23;;;6.80;1.00;;;;;;5055807;28;20307;-83
2022/02/10 21:41:13;;;;;;;14.20;9.40;;;6.80;1.00;;;;;;5058635;28;20236;-83
2022/02/10 21:55:13;;;;;;;10.25;8.63;;;7.00;1.00;;;;;;5051062;28;20228;-82
2022/02/10 21:58:37;;;;;;;14.48;9.40;;;6.90;1.00;;;;;;5055676;28;20226;-83
2022/02/10 22:02:05;;;;;;;10.90;8.25;;;6.90;1.00;;;;;;5035287;28;20233;-82
2022/02/10 22:09:52;;;;;;;11.70;8.80;;;6.80;1.00;;;;;;5014110;28;20253;-83
2022/02/10 22:18:33;;;;;;;4.65;3.10;;;6.50;1.00;;;;;;4949541;28;20229;-82
2022/02/10 22:21:03;;;;;;;7.68;3.22;;;6.30;1.00;;;;;;5030401;28;20291;-82
2022/02/10 22:23:33;;;;;;;5.50;2.80;;;6.00;1.00;;;;;;5052845;28;20221;-83
2022/02/10 22:26:02;;;;;;;7.60;3.20;;;5.80;1.00;;;;;;5055774;28;20249;-83
2022/02/10 22:28:37;;;;;;;6.75;4.68;;;5.60;1.00;;;;;;5052848;28;20225;-83
2022/02/10 22:31:22;;;;;;;4.60;3.00;;;5.30;1.00;;;;;;5056160;28;20280;-82
2022/02/10 22:33:59;;;;;;;6.30;4.03;;;5.10;1.00;;;;;;5036089;28;20225;-85
2022/02/10 22:36:28;;;;;;;4.78;2.83;;;5.00;1.00;;;;;;5036964;28;20231;-83
2022/02/10 22:39:00;;;;;;;4.15;2.65;;;4.90;1.00;;;;;;5054741;28;20221;-82
2022/02/10 22:41:28;;;;;;;6.10;2.40;;;4.80;1.00;;;;;;5062715;28;20225;-82
2022/02/10 22:43:56;;;;;;;3.97;2.40;;;4.70;1.00;;;;;;5066781;28;20252;-82
2022/02/10 22:46:25;;;;;;;6.78;2.50;;;4.70;1.00;;;;;;5065937;28;20313;-81
2022/02/10 22:48:52;;;;;;;4.30;2.50;;;4.70;1.00;;;;;;5063588;28;20217;-81
2022/02/10 22:51:20;;;;;;;8.98;3.10;;;4.50;1.00;;;;;;5061979;28;20272;-82
2022/02/10 22:53:49;;;;;;;4.32;3.08;;;4.40;1.00;;;;;;5042422;28;20229;-83
2022/02/10 22:56:17;;;;;;;4.32;2.88;;;4.40;1.00;;;;;;5055693;28;20233;-82
2022/02/10 22:58:45;;;;;;;3.78;2.45;;;4.30;1.00;;;;;;5053882;28;21414;-83
2022/02/10 23:01:14;;;;;;;5.60;2.97;;;4.30;1.00;;;;;;5051994;28;20316;-83
2022/02/10 23:03:42;;;;;;;7.75;3.40;;;4.30;1.00;;;;;;5033308;28;20248;-83
2022/02/10 23:06:10;;;;;;;5.80;3.00;;;4.30;1.00;;;;;;5048961;28;20228;-83
2022/02/10 23:08:38;;;;;;;5.57;2.95;;;4.40;1.00;;;;;;5051107;28;20225;-83
2022/02/10 23:11:07;;;;;;;5.72;2.70;;;4.40;1.00;;;;;;5047731;28;20237;-85
2022/02/10 23:13:35;;;;;;;4.45;2.55;;;4.50;1.00;;;;;;5048213;28;20229;-83
2022/02/10 23:16:05;;;;;;;4.55;2.95;;;4.50;1.00;;;;;;5044892;28;20224;-82
2022/02/10 23:18:35;;;;;;;7.05;3.45;;;4.50;1.00;;;;;;5052562;28;20225;-84
2022/02/10 23:21:05;;;;;;;4.93;3.50;;;4.50;1.00;;;;;;5069432;28;20218;-81
2022/02/10 23:23:34;;;;;;;13.77;8.68;;;4.50;1.00;;;;;;5065640;28;20225;-82
2022/02/10 23:26:02;;;;;;;6.20;3.10;;;4.50;1.00;;;;;;5073497;28;20277;-82
2022/02/10 23:28:32;;;;;;;6.50;2.92;;;4.50;1.00;;;;;;5039211;28;20237;-84
2022/02/10 23:31:00;;;;;;;4.45;2.90;;;4.50;1.00;;;;;;5049792;28;20231;-83
2022/02/10 23:33:30;;;;;;;7.05;2.92;;;4.50;1.00;;;;;;5053928;28;20225;-84
2022/02/10 23:36:40;;;;;;;5.78;2.95;;;4.50;1.00;;;;;;5051075;28;20226;-82
2022/02/10 23:39:10;;;;;;;3.85;2.22;;;4.50;1.00;;;;;;5051410;28;20237;-83
2022/02/10 23:41:56;;;;;;;4.65;3.05;;;4.50;1.00;;;;;;5052278;28;20224;-83
2022/02/10 23:44:28;;;;;;;5.72;2.80;;;4.50;1.00;;;;;;5049117;28;20287;-85
2022/02/10 23:46:56;;;;;;;6.50;3.50;;;4.50;1.00;;;;;;5048698;28;20308;-84
2022/02/10 23:49:25;;;;;;;6.43;3.22;;;4.50;1.00;;;;;;5052979;28;20210;-84
2022/02/10 23:51:56;;;;;;;8.02;3.35;;;4.50;1.00;;;;;;5028573;28;20266;-84
2022/02/10 23:54:24;;;;;;;4.60;3.30;;;4.50;1.00;;;;;;5045389;28;21431;-84
2022/02/10 23:56:56;;;;;;;15.70;13.20;;;4.50;1.00;;;;;;5050285;28;20262;-83
2022/02/10 23:59:38;;;;;;;5.75;2.80;;;4.50;1.00;;;;;;5050243;28;20230;-84
